Time;durP1;ratioP1;P1;durP2;ratioP2;P2;SDS_P1;SDS_P2;PMS_P1;PMS_P2;Temp;Humidity;BMP_temperature;BMP_pressure;BME280_temperature;BME280_humidity;BME280_pressure;Samples;Min_cycle;Max_cycle;Signal;HPM_P1;HPM_P2
2021/03/18 00:01:16;;;;;;;10.13;8.10;;;1.90;99.90;;;;;;4995787;28;20165;-58
2021/03/18 00:03:43;;;;;;;10.37;8.47;;;1.90;99.90;;;;;;4998813;28;20219;-58
2021/03/18 00:06:09;;;;;;;10.47;8.77;;;1.90;99.90;;;;;;4986236;28;20286;-57
2021/03/18 00:08:35;;;;;;;10.40;8.70;;;1.90;99.90;;;;;;4977636;28;20199;-58
2021/03/18 00:11:08;;;;;;;13.87;9.20;;;1.90;99.90;;;;;;4989576;28;20192;-58
2021/03/18 00:13:35;;;;;;;12.30;8.50;;;2.00;99.90;;;;;;4995629;28;20287;-53
2021/03/18 00:16:01;;;;;;;11.57;9.10;;;2.00;99.90;;;;;;5005375;28;20180;-55
2021/03/18 00:18:32;;;;;;;11.43;9.43;;;2.00;99.90;;;;;;4991388;28;20671;-58
2021/03/18 00:21:00;;;;;;;12.40;9.10;;;2.00;99.90;;;;;;4987377;28;20187;-59
2021/03/18 00:23:26;;;;;;;9.93;8.07;;;2.10;99.90;;;;;;4980538;28;20547;-58
2021/03/18 00:25:52;;;;;;;14.53;9.50;;;2.10;99.90;;;;;;4995485;28;20188;-59
2021/03/18 00:28:17;;;;;;;10.67;8.50;;;2.10;99.90;;;;;;4999417;28;20218;-56
2021/03/18 00:30:44;;;;;;;11.40;8.60;;;2.10;99.90;;;;;;5002946;28;20173;-58
2021/03/18 00:33:09;;;;;;;13.70;8.57;;;2.10;99.90;;;;;;5005946;28;20914;-59
2021/03/18 00:35:35;;;;;;;12.23;8.87;;;2.20;99.90;;;;;;4989614;28;20213;-59
2021/03/18 00:38:01;;;;;;;10.80;8.70;;;2.10;99.90;;;;;;4977489;28;20228;-57
2021/03/18 00:40:33;;;;;;;12.50;8.90;;;2.20;99.90;;;;;;4994524;28;20290;-57
2021/03/18 00:43:00;;;;;;;13.93;8.73;;;2.20;99.90;;;;;;5000207;28;20188;-56
2021/03/18 00:45:28;;;;;;;11.57;8.87;;;2.20;99.90;;;;;;5003258;28;20675;-58
2021/03/18 00:47:54;;;;;;;11.50;8.90;;;2.20;99.90;;;;;;5005279;28;20212;-57
2021/03/18 00:50:39;;;;;;;11.03;9.23;;;2.20;99.90;;;;;;5003337;28;20180;-57
2021/03/18 00:53:08;;;;;;;13.83;9.87;;;2.20;99.90;;;;;;4996133;28;20213;-58
2021/03/18 00:55:33;;;;;;;12.07;9.70;;;2.20;99.90;;;;;;4979479;28;20188;-56
2021/03/18 00:57:59;;;;;;;14.17;10.20;;;2.20;99.90;;;;;;4988115;28;20269;-56
2021/03/18 01:00:30;;;;;;;12.53;10.20;;;2.10;99.90;;;;;;5002606;28;20215;-58
2021/03/18 01:02:57;;;;;;;14.70;10.00;;;2.10;99.90;;;;;;5004163;28;20180;-56
2021/03/18 01:05:46;;;;;;;14.13;9.87;;;2.10;99.90;;;;;;5003671;28;20644;-58
2021/03/18 01:08:13;;;;;;;13.07;10.20;;;2.10;99.90;;;;;;5005343;28;20224;-57
2021/03/18 01:10:46;;;;;;;13.27;10.73;;;2.00;99.90;;;;;;4982229;28;20215;-57
2021/03/18 01:13:17;;;;;;;12.57;9.97;;;2.00;99.90;;;;;;5003334;28;20193;-58
2021/03/18 01:15:43;;;;;;;13.50;9.33;;;2.00;99.90;;;;;;5000368;28;20279;-58
2021/03/18 01:18:09;;;;;;;14.20;10.53;;;2.00;99.90;;;;;;5006665;28;20200;-58
2021/03/18 01:20:35;;;;;;;11.20;9.47;;;2.00;99.90;;;;;;4996917;28;20827;-55
2021/03/18 01:23:00;;;;;;;13.33;10.27;;;2.00;99.90;;;;;;4985963;28;20185;-55
2021/03/18 01:25:26;;;;;;;13.23;9.70;;;1.90;99.90;;;;;;4974229;28;20191;-57
2021/03/18 01:27:52;;;;;;;17.10;11.07;;;1.90;99.90;;;;;;4999971;28;20199;-55
2021/03/18 01:30:21;;;;;;;18.20;12.30;;;1.90;99.90;;;;;;4997751;28;20605;-57
2021/03/18 01:32:47;;;;;;;19.10;13.13;;;1.90;99.90;;;;;;5003485;28;20183;-53
2021/03/18 01:35:17;;;;;;;20.40;13.07;;;2.00;99.90;;;;;;5004357;28;20191;-59
2021/03/18 01:37:43;;;;;;;22.43;12.77;;;2.00;99.90;;;;;;4987751;28;20240;-57
2021/03/18 01:40:12;;;;;;;21.17;13.03;;;2.00;99.90;;;;;;4983680;28;20212;-58
2021/03/18 01:42:38;;;;;;;30.83;12.73;;;2.00;99.90;;;;;;4989496;28;20412;-58
2021/03/18 01:45:06;;;;;;;21.40;12.47;;;1.90;99.90;;;;;;4986166;28;20205;-58
2021/03/18 01:47:32;;;;;;;37.60;12.97;;;1.90;99.90;;;;;;5000692;28;20819;-59
2021/03/18 01:49:58;;;;;;;37.67;13.40;;;1.90;99.90;;;;;;5004315;28;20676;-55
2021/03/18 01:52:23;;;;;;;28.30;13.67;;;1.90;99.90;;;;;;4990384;28;20188;-58
2021/03/18 01:54:49;;;;;;;34.00;14.00;;;1.90;99.90;;;;;;4975145;28;20194;-58
2021/03/18 01:57:15;;;;;;;44.37;15.70;;;1.90;99.90;;;;;;4993490;28;20197;-58
2021/03/18 01:59:41;;;;;;;34.20;15.07;;;1.90;99.90;;;;;;5000662;28;20977;-57
2021/03/18 02:02:06;;;;;;;38.10;14.80;;;1.90;99.90;;;;;;4995034;28;20195;-54
2021/03/18 02:04:34;;;;;;;42.53;15.33;;;1.90;99.90;;;;;;5000697;28;20481;-54
2021/03/18 02:07:00;;;;;;;89.03;17.43;;;1.90;99.90;;;;;;5004579;28;20200;-55
2021/03/18 02:09:26;;;;;;;87.80;16.53;;;1.90;99.90;;;;;;5001247;28;20184;-57
2021/03/18 02:11:51;;;;;;;88.83;16.40;;;1.80;99.90;;;;;;4985928;28;20205;-53
2021/03/18 02:14:17;;;;;;;52.53;15.43;;;1.80;99.90;;;;;;4999019;28;20238;-56
2021/03/18 02:16:47;;;;;;;99.77;16.43;;;1.80;99.90;;;;;;4984381;28;20214;-54
2021/03/18 02:19:37;;;;;;;59.50;16.53;;;1.80;99.90;;;;;;5002975;28;20259;-57
2021/03/18 02:22:17;;;;;;;54.87;15.77;;;1.80;99.90;;;;;;5004272;28;20220;-60
2021/03/18 02:24:56;;;;;;;42.80;15.67;;;1.80;99.90;;;;;;5001920;28;20190;-58
2021/03/18 02:27:38;;;;;;;82.23;16.63;;;1.80;99.90;;;;;;4985292;28;20247;-57
2021/03/18 02:30:34;;;;;;;38.20;15.17;;;1.80;99.90;;;;;;4992261;28;20220;-57
2021/03/18 02:33:22;;;;;;;43.17;14.53;;;1.70;99.90;;;;;;4990928;28;20191;-57
2021/03/18 02:36:00;;;;;;;32.47;15.60;;;1.70;99.90;;;;;;4987725;28;20944;-59
2021/03/18 02:38:35;;;;;;;49.00;15.20;;;1.70;99.90;;;;;;4982120;28;20213;-60
2021/03/18 02:41:05;;;;;;;48.17;14.90;;;1.70;99.90;;;;;;4984814;28;20283;-59
2021/03/18 02:43:36;;;;;;;48.63;14.83;;;1.70;99.90;;;;;;4982696;28;20244;-58
2021/03/18 02:46:02;;;;;;;34.30;13.20;;;1.70;99.90;;;;;;5002683;28;20200;-59
2021/03/18 02:48:32;;;;;;;46.80;14.77;;;1.60;99.90;;;;;;4995575;28;20199;-58
2021/03/18 02:50:59;;;;;;;33.57;12.53;;;1.50;99.90;;;;;;5002556;28;20564;-59
2021/03/18 02:53:27;;;;;;;27.77;11.30;;;1.50;99.90;;;;;;5001890;28;20183;-59
2021/03/18 02:55:54;;;;;;;30.80;9.57;;;1.40;99.90;;;;;;5004308;28;20229;-59
2021/03/18 02:58:22;;;;;;;38.67;8.83;;;1.40;99.90;;;;;;4981041;28;20285;-59
2021/03/18 03:00:50;;;;;;;41.00;9.20;;;1.30;99.90;;;;;;4995823;28;20714;-58
2021/03/18 03:03:17;;;;;;;29.43;8.90;;;1.30;99.90;;;;;;5000486;28;20175;-59
2021/03/18 03:05:46;;;;;;;50.10;9.03;;;1.20;99.90;;;;;;4998120;28;20198;-58
2021/03/18 03:08:13;;;;;;;31.40;9.03;;;1.10;99.90;;;;;;5000041;28;20200;-58
2021/03/18 03:10:40;;;;;;;50.57;9.10;;;1.10;99.90;;;;;;5003355;28;20182;-53
2021/03/18 03:13:06;;;;;;;34.33;8.93;;;1.10;99.90;;;;;;4987234;28;20194;-58
2021/03/18 03:15:32;;;;;;;42.30;9.33;;;1.10;99.90;;;;;;4992778;28;20195;-58
2021/03/18 03:18:04;;;;;;;34.87;9.47;;;1.10;99.90;;;;;;4984264;28;20199;-57
2021/03/18 03:20:30;;;;;;;44.53;9.17;;;1.20;99.90;;;;;;4980815;28;20269;-56
2021/03/18 03:22:59;;;;;;;64.33;10.63;;;1.20;99.90;;;;;;5007028;28;20180;-57
2021/03/18 03:25:26;;;;;;;70.90;11.40;;;1.20;99.90;;;;;;5004952;28;20220;-56
2021/03/18 03:27:52;;;;;;;84.53;10.80;;;1.20;99.90;;;;;;5007428;28;20202;-56
2021/03/18 03:30:18;;;;;;;79.07;11.20;;;1.20;99.90;;;;;;4979925;28;20200;-52
2021/03/18 03:32:46;;;;;;;56.93;10.20;;;1.20;99.90;;;;;;4992362;28;20199;-52
2021/03/18 03:35:12;;;;;;;34.67;10.20;;;1.20;99.90;;;;;;4984166;28;20742;-58
2021/03/18 03:37:39;;;;;;;62.90;11.57;;;1.30;99.90;;;;;;4995574;28;20211;-52
2021/03/18 03:40:08;;;;;;;63.60;11.00;;;1.30;99.90;;;;;;5004569;28;20205;-57
2021/03/18 03:42:34;;;;;;;79.30;15.83;;;1.30;99.90;;;;;;5005540;28;20244;-55
2021/03/18 03:45:00;;;;;;;63.67;12.73;;;1.40;99.90;;;;;;4991083;28;20191;-57
2021/03/18 03:47:26;;;;;;;50.57;11.00;;;1.40;99.90;;;;;;4992881;28;20195;-58
2021/03/18 03:49:51;;;;;;;79.87;13.20;;;1.40;99.90;;;;;;4987194;28;20225;-55
2021/03/18 03:52:34;;;;;;;68.53;13.10;;;1.40;99.90;;;;;;4980768;28;20219;-58
2021/03/18 03:55:24;;;;;;;66.63;13.97;;;1.50;99.90;;;;;;5005841;28;20544;-57
2021/03/18 03:58:09;;;;;;;70.20;13.37;;;1.50;99.90;;;;;;5006852;28;20309;-56
2021/03/18 04:00:39;;;;;;;42.17;12.53;;;1.50;99.90;;;;;;4991587;28;20213;-54
2021/03/18 04:03:06;;;;;;;58.13;13.37;;;1.50;99.90;;;;;;4996202;28;20247;-57
2021/03/18 04:05:35;;;;;;;69.43;13.20;;;1.60;99.90;;;;;;5005445;28;20181;-57
2021/03/18 04:08:04;;;;;;;114.63;14.70;;;1.50;99.90;;;;;;4997632;28;20257;-57
2021/03/18 04:10:32;;;;;;;69.43;12.50;;;1.60;99.90;;;;;;5004670;28;20172;-56
2021/03/18 04:13:00;;;;;;;41.90;12.90;;;1.60;99.90;;;;;;5005506;28;20206;-58
2021/03/18 04:15:29;;;;;;;65.67;16.53;;;1.60;99.90;;;;;;4999759;28;20182;-57
2021/03/18 04:17:57;;;;;;;89.47;14.73;;;1.70;99.90;;;;;;4970185;28;20344;-58
2021/03/18 04:20:24;;;;;;;71.27;13.83;;;1.60;99.90;;;;;;4985960;28;20274;-57
2021/03/18 04:22:53;;;;;;;52.90;14.13;;;1.60;99.90;;;;;;4979458;28;20267;-57
2021/03/18 04:25:21;;;;;;;46.03;13.37;;;1.60;99.90;;;;;;5005569;28;20258;-57
2021/03/18 04:27:48;;;;;;;73.63;13.67;;;1.60;99.90;;;;;;5003588;28;20199;-59
2021/03/18 04:30:15;;;;;;;50.13;13.67;;;1.60;99.90;;;;;;5005767;28;20694;-59
2021/03/18 04:32:44;;;;;;;54.37;13.20;;;1.60;99.90;;;;;;4990534;28;20392;-59
2021/03/18 04:35:11;;;;;;;68.03;16.53;;;1.60;99.90;;;;;;4994450;28;20896;-57
2021/03/18 04:37:37;;;;;;;56.07;12.63;;;1.70;99.90;;;;;;4985721;28;20215;-58
2021/03/18 04:40:07;;;;;;;35.77;11.90;;;1.70;99.90;;;;;;4998747;28;20214;-56
2021/03/18 04:42:35;;;;;;;61.60;11.67;;;1.70;99.90;;;;;;5006041;28;20687;-57
2021/03/18 04:45:01;;;;;;;51.73;11.77;;;1.70;99.90;;;;;;4993514;28;20496;-57
2021/03/18 04:47:29;;;;;;;67.93;12.40;;;1.70;99.90;;;;;;4986479;28;20196;-58
2021/03/18 04:49:55;;;;;;;52.63;13.77;;;1.70;99.90;;;;;;4979087;28;20188;-54
2021/03/18 04:52:21;;;;;;;44.60;11.53;;;1.70;99.90;;;;;;4994115;28;20183;-56
2021/03/18 04:54:47;;;;;;;39.83;11.30;;;1.70;99.90;;;;;;4995899;28;20294;-57
2021/03/18 04:57:18;;;;;;;59.67;11.60;;;1.70;99.90;;;;;;5006048;28;20283;-57
2021/03/18 04:59:44;;;;;;;35.13;10.37;;;1.70;99.90;;;;;;5006243;28;20215;-59
2021/03/18 05:02:12;;;;;;;63.70;11.27;;;1.80;99.90;;;;;;4998588;28;20203;-59
2021/03/18 05:04:38;;;;;;;51.50;11.23;;;1.80;99.90;;;;;;4986206;28;20194;-59
2021/03/18 05:07:04;;;;;;;78.23;11.23;;;1.90;99.90;;;;;;4990600;28;20227;-59
2021/03/18 05:09:30;;;;;;;60.47;10.57;;;1.90;99.90;;;;;;4999494;28;20245;-58
2021/03/18 05:11:57;;;;;;;48.43;10.37;;;1.90;99.90;;;;;;4987503;28;20887;-56
2021/03/18 05:14:23;;;;;;;77.00;15.00;;;1.80;99.90;;;;;;4987420;28;20714;-58
2021/03/18 05:16:50;;;;;;;48.80;10.13;;;1.80;99.90;;;;;;4983579;28;20243;-58
2021/03/18 05:19:17;;;;;;;57.27;10.43;;;1.80;99.90;;;;;;4985598;28;20278;-57
2021/03/18 05:21:44;;;;;;;84.47;11.57;;;1.80;99.90;;;;;;4980930;28;20248;-58
2021/03/18 05:24:12;;;;;;;55.37;10.17;;;1.80;99.90;;;;;;4995238;28;20198;-56
2021/03/18 05:26:42;;;;;;;35.30;10.77;;;1.80;99.90;;;;;;5004878;28;20204;-59
2021/03/18 05:29:09;;;;;;;77.47;10.73;;;1.80;99.90;;;;;;5001507;28;20816;-55
2021/03/18 05:31:35;;;;;;;59.90;10.90;;;1.80;99.90;;;;;;5004604;28;20191;-56
2021/03/18 05:34:01;;;;;;;36.77;10.20;;;1.80;99.90;;;;;;5001546;28;20176;-57
2021/03/18 05:36:27;;;;;;;35.40;9.53;;;1.90;99.90;;;;;;4983712;28;20211;-57
2021/03/18 05:38:53;;;;;;;68.47;10.80;;;1.80;99.90;;;;;;4992401;28;20269;-58
2021/03/18 05:41:19;;;;;;;59.07;10.20;;;1.80;99.90;;;;;;4995837;28;20196;-58
2021/03/18 05:43:46;;;;;;;53.10;10.47;;;1.80;99.90;;;;;;4985288;28;20519;-59
2021/03/18 05:46:16;;;;;;;74.83;11.40;;;1.80;99.90;;;;;;4988636;28;20183;-56
2021/03/18 05:48:44;;;;;;;102.03;11.30;;;1.90;99.90;;;;;;4998491;28;20188;-59
2021/03/18 05:51:17;;;;;;;43.37;10.67;;;1.90;99.90;;;;;;4980182;28;20287;-58
2021/03/18 05:53:45;;;;;;;68.73;11.23;;;1.90;99.90;;;;;;4998432;28;20554;-59
2021/03/18 05:56:20;;;;;;;51.93;10.83;;;1.90;99.90;;;;;;5002652;28;20333;-59
2021/03/18 05:58:47;;;;;;;65.07;10.53;;;1.90;99.90;;;;;;4992120;28;20248;-57
2021/03/18 06:01:14;;;;;;;93.97;12.27;;;1.90;99.90;;;;;;5000992;28;20641;-58
2021/03/18 06:03:40;;;;;;;51.43;10.57;;;2.00;99.90;;;;;;4985140;28;20283;-55
2021/03/18 06:06:07;;;;;;;45.90;11.07;;;2.00;99.90;;;;;;4978964;28;20335;-57
2021/03/18 06:08:35;;;;;;;56.20;11.47;;;2.00;99.90;;;;;;4992381;28;20205;-59
2021/03/18 06:11:02;;;;;;;51.27;10.60;;;2.00;99.90;;;;;;4992897;28;20195;-59
2021/03/18 06:13:27;;;;;;;63.97;12.20;;;2.00;99.90;;;;;;4998678;28;20212;-55
2021/03/18 06:15:53;;;;;;;42.00;11.67;;;2.10;99.90;;;;;;5003218;28;20687;-57
2021/03/18 06:18:20;;;;;;;62.20;11.23;;;2.10;99.90;;;;;;4996057;28;20306;-56
2021/03/18 06:20:54;;;;;;;37.30;11.57;;;2.10;99.90;;;;;;4989716;28;20611;-58
2021/03/18 06:23:21;;;;;;;48.07;11.17;;;2.20;99.90;;;;;;4981516;28;20195;-56
2021/03/18 06:25:48;;;;;;;59.20;11.93;;;2.20;99.90;;;;;;4988836;28;20648;-55
2021/03/18 06:28:23;;;;;;;30.60;11.27;;;2.30;99.90;;;;;;4996801;28;20333;-54
2021/03/18 06:31:03;;;;;;;51.87;11.50;;;2.30;99.90;;;;;;4992179;28;20648;-54
2021/03/18 06:33:37;;;;;;;44.10;11.27;;;2.30;99.90;;;;;;4992414;28;20301;-56
2021/03/18 06:36:17;;;;;;;91.13;12.67;;;2.30;99.90;;;;;;4999231;28;20180;-56
2021/03/18 06:38:43;;;;;;;68.43;15.07;;;2.30;99.90;;;;;;4990494;28;20213;-55
2021/03/18 06:41:09;;;;;;;58.50;14.00;;;2.30;99.90;;;;;;4982289;28;20189;-58
2021/03/18 06:43:40;;;;;;;47.00;11.73;;;2.40;99.90;;;;;;5000767;28;20223;-52
2021/03/18 06:46:17;;;;;;;51.27;12.87;;;2.40;99.90;;;;;;5000227;28;20195;-58
2021/03/18 06:48:43;;;;;;;66.10;12.70;;;2.40;99.90;;;;;;5000535;28;20199;-58
2021/03/18 06:51:23;;;;;;;53.40;12.87;;;2.40;99.90;;;;;;4990622;28;20183;-60
2021/03/18 06:53:50;;;;;;;90.10;13.60;;;2.40;99.90;;;;;;4980090;28;20291;-59
2021/03/18 06:56:25;;;;;;;43.30;13.53;;;2.40;99.90;;;;;;4981892;28;20524;-51
2021/03/18 06:58:51;;;;;;;56.97;12.93;;;2.40;99.90;;;;;;4987070;28;20203;-57
2021/03/18 07:01:23;;;;;;;75.07;13.27;;;2.40;99.90;;;;;;5000003;28;20234;-55
2021/03/18 07:03:48;;;;;;;72.03;13.40;;;2.50;99.90;;;;;;4998674;28;20586;-57
2021/03/18 07:06:34;;;;;;;39.00;11.73;;;2.50;99.90;;;;;;4993106;28;20194;-58
2021/03/18 07:09:13;;;;;;;62.33;12.80;;;2.50;99.90;;;;;;4987928;28;20576;-57
2021/03/18 07:11:44;;;;;;;59.27;13.03;;;2.50;99.90;;;;;;4998616;28;20202;-55
2021/03/18 07:14:11;;;;;;;59.00;14.53;;;2.60;99.90;;;;;;4991174;28;20188;-57
2021/03/18 07:16:47;;;;;;;39.43;13.10;;;2.50;99.90;;;;;;4986224;28;20913;-56
2021/03/18 07:19:27;;;;;;;48.90;12.77;;;2.60;99.90;;;;;;4978583;28;20914;-56
2021/03/18 07:21:54;;;;;;;60.63;12.73;;;2.50;99.90;;;;;;4994972;28;20243;-56
2021/03/18 07:24:28;;;;;;;87.37;14.80;;;2.50;99.90;;;;;;4975883;28;20188;-55
2021/03/18 07:27:05;;;;;;;44.30;12.87;;;2.60;99.90;;;;;;4989276;28;20212;-59
2021/03/18 07:29:31;;;;;;;39.67;14.97;;;2.60;99.90;;;;;;4989312;28;20183;-60
2021/03/18 07:31:57;;;;;;;90.77;14.43;;;2.60;99.90;;;;;;4996847;28;20607;-57
2021/03/18 07:34:25;;;;;;;42.47;13.97;;;2.60;99.90;;;;;;4985466;28;20338;-55
2021/03/18 07:36:56;;;;;;;58.20;14.10;;;2.70;99.90;;;;;;4994802;28;20255;-58
2021/03/18 07:39:24;;;;;;;50.63;14.57;;;2.70;99.90;;;;;;4974904;28;20223;-54
2021/03/18 07:41:51;;;;;;;71.73;15.10;;;2.70;99.90;;;;;;4989291;28;20185;-57
2021/03/18 07:44:17;;;;;;;69.77;15.73;;;2.70;99.90;;;;;;4988429;28;20429;-51
2021/03/18 07:46:46;;;;;;;40.43;14.37;;;2.80;99.90;;;;;;4996170;28;20219;-54
2021/03/18 07:49:17;;;;;;;61.70;14.50;;;2.80;99.90;;;;;;4997909;28;20317;-53
2021/03/18 07:51:44;;;;;;;42.83;14.07;;;2.80;99.90;;;;;;5003464;28;20180;-52
2021/03/18 07:54:17;;;;;;;35.03;12.83;;;2.80;99.90;;;;;;4999224;28;20936;-53
2021/03/18 07:56:47;;;;;;;51.80;12.93;;;2.90;99.90;;;;;;4971514;28;20501;-57
2021/03/18 07:59:12;;;;;;;47.23;13.80;;;2.90;99.90;;;;;;4995999;28;20215;-55
2021/03/18 08:01:39;;;;;;;32.30;13.10;;;2.90;99.90;;;;;;4977851;28;20192;-56
2021/03/18 08:04:10;;;;;;;45.30;13.70;;;2.90;99.90;;;;;;4992469;28;20180;-50
2021/03/18 08:06:39;;;;;;;40.93;13.97;;;2.90;99.90;;;;;;4991429;28;20727;-56
2021/03/18 08:09:25;;;;;;;43.87;13.70;;;2.90;99.90;;;;;;4994579;28;20206;-58
2021/03/18 08:11:50;;;;;;;37.97;15.07;;;2.90;99.90;;;;;;4982959;28;20212;-57
2021/03/18 08:14:19;;;;;;;32.20;14.13;;;3.00;99.90;;;;;;4988884;28;20193;-58
2021/03/18 08:16:45;;;;;;;28.33;13.10;;;3.00;99.90;;;;;;4986569;28;20209;-58
2021/03/18 08:19:13;;;;;;;28.03;12.90;;;3.00;99.90;;;;;;4993582;28;20204;-57
2021/03/18 08:21:44;;;;;;;33.43;13.43;;;3.10;99.90;;;;;;4988591;28;20699;-54
2021/03/18 08:24:22;;;;;;;30.30;12.17;;;3.10;99.90;;;;;;4988645;28;20199;-57
2021/03/18 08:26:56;;;;;;;27.93;13.90;;;3.10;99.90;;;;;;4984472;28;20668;-57
2021/03/18 08:29:42;;;;;;;20.47;11.13;;;3.20;99.90;;;;;;4989602;28;20196;-58
2021/03/18 08:32:43;;;;;;;31.33;13.87;;;3.20;99.90;;;;;;4985078;28;20835;-56
2021/03/18 08:35:09;;;;;;;24.97;12.47;;;3.20;99.90;;;;;;4974091;28;20242;-56
2021/03/18 08:37:37;;;;;;;21.63;11.93;;;3.30;99.90;;;;;;4988428;28;20715;-57
2021/03/18 08:40:30;;;;;;;21.23;12.07;;;3.40;99.90;;;;;;4998968;28;20870;-58
2021/03/18 08:43:02;;;;;;;24.53;12.43;;;3.40;99.90;;;;;;4979774;28;20303;-56
2021/03/18 08:45:28;;;;;;;26.63;12.47;;;3.40;99.90;;;;;;4995391;28;20204;-57
2021/03/18 08:48:06;;;;;;;24.47;12.20;;;3.50;99.90;;;;;;5001019;28;20204;-57
2021/03/18 08:50:32;;;;;;;23.57;11.97;;;3.50;99.90;;;;;;5002737;28;20192;-58
2021/03/18 08:52:59;;;;;;;19.70;11.47;;;3.60;99.90;;;;;;4991302;28;20195;-59
2021/03/18 08:55:42;;;;;;;18.40;9.67;;;3.60;99.90;;;;;;5001595;28;20220;-58
2021/03/18 08:58:09;;;;;;;17.53;9.47;;;3.60;99.90;;;;;;5000924;28;20295;-58
2021/03/18 09:00:36;;;;;;;20.63;10.37;;;3.60;99.90;;;;;;5000302;28;20271;-58
2021/03/18 09:03:03;;;;;;;16.80;9.77;;;3.70;99.90;;;;;;5004843;28;20180;-56
2021/03/18 09:05:29;;;;;;;16.27;9.47;;;3.70;99.90;;;;;;5007190;28;20177;-58
2021/03/18 09:08:01;;;;;;;16.63;9.23;;;3.70;99.90;;;;;;4995152;28;20691;-57
2021/03/18 09:10:29;;;;;;;13.27;7.63;;;3.80;99.90;;;;;;5001260;28;20193;-55
2021/03/18 09:12:58;;;;;;;14.10;7.63;;;3.80;99.90;;;;;;4995557;28;20185;-58
2021/03/18 09:15:38;;;;;;;13.03;6.97;;;3.80;99.90;;;;;;4992625;28;20282;-58
2021/03/18 09:18:18;;;;;;;11.63;7.50;;;3.70;99.90;;;;;;4997241;28;20967;-54
2021/03/18 09:20:50;;;;;;;13.70;7.93;;;3.80;99.90;;;;;;4997389;28;20268;-59
2021/03/18 09:23:23;;;;;;;11.30;7.30;;;3.70;99.90;;;;;;4989183;28;20192;-58
2021/03/18 09:25:49;;;;;;;12.97;6.93;;;3.90;99.90;;;;;;4992572;28;20769;-58
2021/03/18 09:28:15;;;;;;;9.73;6.70;;;3.90;99.90;;;;;;4984591;28;20292;-56
2021/03/18 09:30:54;;;;;;;12.77;7.50;;;3.90;99.90;;;;;;4974277;28;20199;-57
2021/03/18 09:33:29;;;;;;;10.83;7.20;;;3.90;99.90;;;;;;5000358;28;20195;-56
2021/03/18 09:35:57;;;;;;;8.47;6.33;;;4.00;99.90;;;;;;4986074;28;20254;-57
2021/03/18 09:38:25;;;;;;;11.23;8.53;;;4.00;99.90;;;;;;4993143;28;20217;-55
2021/03/18 09:40:53;;;;;;;12.60;7.30;;;4.20;99.90;;;;;;4995548;28;20266;-57
2021/03/18 09:43:21;;;;;;;8.67;6.40;;;4.20;99.90;;;;;;4995561;28;20173;-54
2021/03/18 09:45:52;;;;;;;10.73;6.53;;;4.30;99.90;;;;;;4981867;28;20201;-58
2021/03/18 09:48:27;;;;;;;8.53;6.73;;;4.30;99.90;;;;;;4989994;28;20223;-55
2021/03/18 09:50:54;;;;;;;10.37;6.77;;;4.40;99.90;;;;;;5002389;28;20592;-57
2021/03/18 09:53:21;;;;;;;11.63;6.17;;;4.50;99.90;;;;;;4998280;28;20189;-55
2021/03/18 09:55:46;;;;;;;7.60;6.10;;;4.60;99.90;;;;;;4998881;28;20197;-58
2021/03/18 09:58:15;;;;;;;9.13;5.93;;;4.70;99.90;;;;;;5000071;28;20207;-56
2021/03/18 10:00:41;;;;;;;11.37;5.87;;;4.90;99.90;;;;;;5004480;28;20213;-54
2021/03/18 10:03:07;;;;;;;6.63;5.70;;;4.80;99.90;;;;;;4981418;28;20185;-58
2021/03/18 10:05:35;;;;;;;7.10;6.07;;;4.70;99.90;;;;;;5000804;28;20227;-57
2021/03/18 10:08:03;;;;;;;9.53;5.73;;;4.60;99.90;;;;;;4985910;28;20284;-58
2021/03/18 10:10:30;;;;;;;8.97;5.83;;;4.70;99.90;;;;;;4996204;28;20231;-57
2021/03/18 10:12:58;;;;;;;7.97;5.60;;;4.60;99.90;;;;;;5012029;28;20270;-57
2021/03/18 10:15:25;;;;;;;9.90;5.70;;;4.60;99.90;;;;;;4998883;28;20185;-58
2021/03/18 10:17:53;;;;;;;8.67;5.87;;;4.60;99.90;;;;;;4967988;28;20319;-58
2021/03/18 10:20:33;;;;;;;6.93;5.67;;;4.60;99.90;;;;;;5013396;28;20213;-56
2021/03/18 10:23:01;;;;;;;7.43;5.53;;;4.70;99.90;;;;;;4994780;28;20541;-57
2021/03/18 10:25:29;;;;;;;11.17;5.70;;;4.80;99.90;;;;;;4974175;28;20814;-58
2021/03/18 10:28:02;;;;;;;6.33;5.30;;;4.90;99.90;;;;;;4990852;28;20200;-58
2021/03/18 10:30:29;;;;;;;9.73;5.83;;;4.90;99.90;;;;;;4995400;28;20193;-58
2021/03/18 10:33:13;;;;;;;8.60;5.77;;;5.00;99.90;;;;;;4985916;28;20192;-58
2021/03/18 10:35:44;;;;;;;6.60;5.40;;;5.30;99.90;;;;;;4997664;28;20182;-57
2021/03/18 10:38:15;;;;;;;6.13;4.77;;;5.20;99.90;;;;;;5013770;28;20215;-56
2021/03/18 10:40:44;;;;;;;6.97;5.00;;;5.30;99.90;;;;;;4994408;28;20243;-58
2021/03/18 10:43:30;;;;;;;9.33;4.83;;;5.40;99.90;;;;;;4999647;28;20221;-59
2021/03/18 10:45:59;;;;;;;5.20;4.53;;;5.40;99.90;;;;;;5006815;28;20184;-58
2021/03/18 10:48:28;;;;;;;7.83;4.67;;;5.50;99.90;;;;;;4981107;28;21253;-56
2021/03/18 10:51:00;;;;;;;9.50;5.67;;;5.60;99.90;;;;;;5002709;28;20209;-58
2021/03/18 10:53:26;;;;;;;6.30;4.73;;;5.60;99.90;;;;;;4993335;28;20224;-58
2021/03/18 10:55:54;;;;;;;12.33;6.07;;;5.70;99.90;;;;;;5001753;28;20316;-58
2021/03/18 10:58:25;;;;;;;11.83;5.27;;;5.80;99.90;;;;;;4989447;28;20212;-57
2021/03/18 11:01:01;;;;;;;5.70;4.27;;;6.00;99.90;;;;;;4996306;28;20239;-58
2021/03/18 11:03:29;;;;;;;8.27;5.03;;;6.00;99.90;;;;;;4979287;28;20241;-59
2021/03/18 11:05:55;;;;;;;6.17;5.30;;;6.10;99.90;;;;;;4987432;28;20201;-58
2021/03/18 11:08:32;;;;;;;14.00;7.73;;;6.10;99.90;;;;;;5003819;28;20334;-57
2021/03/18 11:11:10;;;;;;;9.43;5.37;;;6.10;99.90;;;;;;4990510;28;20203;-56
2021/03/18 11:13:36;;;;;;;5.80;5.03;;;6.20;99.90;;;;;;4998629;28;20185;-55
2021/03/18 11:16:04;;;;;;;6.40;5.10;;;6.30;99.90;;;;;;4995336;28;20577;-56
2021/03/18 11:18:43;;;;;;;6.80;5.50;;;6.40;99.90;;;;;;4978310;28;20193;-55
2021/03/18 11:21:24;;;;;;;12.90;6.00;;;6.50;99.90;;;;;;4990271;28;20196;-55
2021/03/18 11:23:54;;;;;;;7.13;5.70;;;6.40;99.90;;;;;;4993529;28;20193;-56
2021/03/18 11:26:23;;;;;;;8.43;5.60;;;6.30;99.90;;;;;;4986925;28;20233;-55
2021/03/18 11:29:05;;;;;;;8.47;5.67;;;6.30;99.90;;;;;;4999484;28;20542;-57
2021/03/18 11:31:35;;;;;;;5.60;5.10;;;6.40;99.90;;;;;;4998584;28;20264;-58
2021/03/18 11:34:13;;;;;;;7.53;5.40;;;6.50;99.90;;;;;;4973310;28;20247;-58
2021/03/18 11:36:39;;;;;;;7.53;5.40;;;6.50;99.90;;;;;;4993974;28;20240;-56
2021/03/18 11:39:04;;;;;;;9.57;6.13;;;6.50;99.90;;;;;;4999511;28;20243;-57
2021/03/18 11:41:31;;;;;;;8.37;5.97;;;6.40;99.90;;;;;;4994143;28;20216;-57
2021/03/18 11:43:56;;;;;;;5.80;5.20;;;6.50;99.90;;;;;;4987635;28;20189;-56
2021/03/18 11:46:22;;;;;;;6.33;4.50;;;6.40;99.90;;;;;;5006275;28;20283;-57
2021/03/18 11:48:48;;;;;;;7.47;5.23;;;6.40;99.90;;;;;;4986909;28;20189;-58
2021/03/18 11:51:13;;;;;;;5.03;4.43;;;6.40;99.90;;;;;;4995185;28;20209;-54
2021/03/18 11:53:39;;;;;;;5.60;5.00;;;6.20;99.90;;;;;;5005342;28;20188;-53
2021/03/18 11:56:05;;;;;;;6.33;5.17;;;6.20;99.90;;;;;;4995762;28;20203;-57
2021/03/18 11:58:30;;;;;;;6.90;5.13;;;6.20;99.90;;;;;;4999762;28;20188;-55
2021/03/18 12:00:56;;;;;;;9.90;5.17;;;6.10;99.90;;;;;;4998964;28;20220;-56
2021/03/18 12:03:21;;;;;;;6.30;5.00;;;6.20;99.90;;;;;;4993638;28;21001;-55
2021/03/18 12:05:47;;;;;;;6.83;5.47;;;6.10;99.90;;;;;;4985952;28;20192;-56
2021/03/18 12:08:13;;;;;;;5.77;4.57;;;6.10;99.90;;;;;;4989976;28;20258;-56
2021/03/18 12:10:39;;;;;;;6.10;4.93;;;6.00;99.90;;;;;;5000974;28;20246;-57
2021/03/18 12:13:05;;;;;;;7.40;4.50;;;6.00;99.90;;;;;;4992531;28;20282;-55
2021/03/18 12:15:31;;;;;;;6.33;4.47;;;6.00;99.90;;;;;;4995846;28;20669;-56
2021/03/18 12:17:57;;;;;;;7.83;5.00;;;6.10;99.90;;;;;;5001796;28;20673;-57
2021/03/18 12:20:25;;;;;;;5.93;4.57;;;6.00;99.90;;;;;;4984256;28;20448;-55
2021/03/18 12:22:52;;;;;;;7.17;4.93;;;6.00;99.90;;;;;;4993639;28;20584;-58
2021/03/18 12:25:18;;;;;;;7.03;4.50;;;6.00;99.90;;;;;;4995700;28;20173;-52
2021/03/18 12:27:44;;;;;;;4.33;3.93;;;6.00;99.90;;;;;;5000288;28;20227;-57
2021/03/18 12:30:13;;;;;;;5.37;3.83;;;6.10;99.90;;;;;;4987156;28;20204;-54
2021/03/18 12:32:40;;;;;;;4.70;3.50;;;6.10;99.90;;;;;;5005018;28;20268;-50
2021/03/18 12:35:06;;;;;;;6.67;3.73;;;6.10;99.90;;;;;;4981644;28;20222;-55
2021/03/18 12:37:33;;;;;;;6.07;4.23;;;6.10;99.90;;;;;;4988480;28;20216;-54
2021/03/18 12:39:59;;;;;;;6.23;4.43;;;6.00;99.90;;;;;;4988230;28;20547;-57
2021/03/18 12:42:25;;;;;;;6.60;3.63;;;6.10;99.90;;;;;;4991562;28;20660;-55
2021/03/18 12:44:51;;;;;;;4.47;3.43;;;6.20;99.90;;;;;;4995415;28;20193;-57
2021/03/18 12:47:18;;;;;;;4.97;4.00;;;6.20;99.90;;;;;;4981264;28;20305;-56
2021/03/18 12:49:43;;;;;;;4.33;3.90;;;6.20;99.90;;;;;;4984622;28;20661;-56
2021/03/18 12:52:09;;;;;;;3.60;3.30;;;6.30;99.90;;;;;;4995272;28;20263;-55
2021/03/18 12:54:35;;;;;;;5.10;3.10;;;6.30;99.90;;;;;;5004581;28;20664;-52